Time;durP1;ratioP1;P1;durP2;ratioP2;P2;SDS_P1;SDS_P2;PMS_P1;PMS_P2;Temp;Humidity;BMP_temperature;BMP_pressure;BME280_temperature;BME280_humidity;BME280_pressure;Samples;Min_cycle;Max_cycle;Signal;HPM_P1;HPM_P2
2024/02/18 00:01:05;;;;;;;12.27;5.77;;;10.10;99.90;;;;;;5014321;28;20053;-49
2024/02/18 00:03:30;;;;;;;14.43;5.40;;;10.10;99.90;;;;;;5014259;28;20072;-53
2024/02/18 00:05:57;;;;;;;15.73;6.67;;;10.10;99.90;;;;;;5014061;28;20065;-49
2024/02/18 00:08:23;;;;;;;11.03;5.30;;;10.10;99.90;;;;;;5014154;28;20426;-49
2024/02/18 00:10:49;;;;;;;13.33;5.30;;;10.10;99.90;;;;;;5013469;28;20026;-50
2024/02/18 00:13:14;;;;;;;13.50;5.57;;;10.20;99.90;;;;;;5014035;28;20037;-51
2024/02/18 00:15:40;;;;;;;11.40;5.13;;;10.20;99.90;;;;;;5013864;28;20127;-51
2024/02/18 00:18:06;;;;;;;14.07;5.33;;;10.10;99.90;;;;;;5013780;28;20557;-51
2024/02/18 00:20:31;;;;;;;10.53;5.00;;;10.20;99.90;;;;;;5013581;28;20034;-51
2024/02/18 00:22:57;;;;;;;13.00;5.30;;;10.20;99.90;;;;;;5013871;28;20108;-52
2024/02/18 00:25:23;;;;;;;9.33;4.57;;;10.10;99.90;;;;;;5013760;28;20388;-51
2024/02/18 00:27:48;;;;;;;12.60;6.13;;;10.20;99.90;;;;;;5013730;28;20133;-48
2024/02/18 00:30:14;;;;;;;11.97;4.93;;;10.20;99.90;;;;;;5012055;28;20030;-50
2024/02/18 00:32:40;;;;;;;8.70;4.57;;;10.20;99.90;;;;;;5013618;28;20398;-50
2024/02/18 00:35:06;;;;;;;13.83;4.80;;;10.20;99.90;;;;;;5013371;28;20030;-50
2024/02/18 00:37:31;;;;;;;9.37;5.00;;;10.20;99.90;;;;;;5013554;28;20083;-51
2024/02/18 00:39:57;;;;;;;10.60;4.83;;;10.20;99.90;;;;;;5013252;28;20026;-49
2024/02/18 00:42:24;;;;;;;10.80;4.90;;;10.20;99.90;;;;;;5013465;28;20033;-48
2024/02/18 00:44:49;;;;;;;22.10;9.27;;;10.20;99.90;;;;;;5013220;28;20487;-53
2024/02/18 00:47:15;;;;;;;17.47;5.40;;;10.20;99.90;;;;;;5013419;28;20080;-49
2024/02/18 00:49:41;;;;;;;15.87;4.87;;;10.20;99.90;;;;;;5013023;28;20034;-51
2024/02/18 00:52:06;;;;;;;8.57;5.10;;;10.20;99.90;;;;;;5012055;28;20032;-50
2024/02/18 00:54:32;;;;;;;9.33;4.97;;;10.20;99.90;;;;;;5013093;28;20399;-50
2024/02/18 00:56:58;;;;;;;9.47;4.67;;;10.20;99.90;;;;;;5011910;28;20061;-49
2024/02/18 00:59:24;;;;;;;11.83;4.83;;;10.20;99.90;;;;;;5012901;28;20529;-48
2024/02/18 01:01:50;;;;;;;9.50;4.43;;;10.10;99.90;;;;;;5013087;28;20026;-49
2024/02/18 01:04:16;;;;;;;12.37;4.73;;;10.20;99.90;;;;;;5012872;28;20108;-51
2024/02/18 01:06:41;;;;;;;12.27;5.10;;;10.20;99.90;;;;;;5013038;28;20030;-53
2024/02/18 01:09:07;;;;;;;10.27;4.60;;;10.20;99.90;;;;;;5012689;28;20034;-53
2024/02/18 01:11:33;;;;;;;8.53;4.30;;;10.20;99.90;;;;;;5013029;28;20595;-53
2024/02/18 01:13:58;;;;;;;15.00;4.47;;;10.20;99.90;;;;;;5012880;28;20112;-53
2024/02/18 01:16:24;;;;;;;11.20;3.90;;;10.10;99.90;;;;;;5012911;28;20376;-51
2024/02/18 01:18:50;;;;;;;10.23;4.47;;;10.20;99.90;;;;;;5011345;28;20406;-53
2024/02/18 01:21:16;;;;;;;10.80;4.60;;;10.20;99.90;;;;;;5012687;28;20041;-49
2024/02/18 01:23:42;;;;;;;9.37;4.30;;;10.30;99.90;;;;;;5012021;28;20026;-52
2024/02/18 01:26:08;;;;;;;9.50;4.40;;;10.20;99.90;;;;;;5012718;28;20423;-49
2024/02/18 01:28:34;;;;;;;7.83;3.63;;;10.20;99.90;;;;;;5012404;28;20041;-49
2024/02/18 01:31:00;;;;;;;11.23;3.97;;;10.30;99.90;;;;;;5011342;28;20113;-51
2024/02/18 01:33:26;;;;;;;10.83;4.23;;;10.20;99.90;;;;;;5012428;28;20129;-49
2024/02/18 01:35:52;;;;;;;8.27;3.67;;;10.20;99.90;;;;;;5012593;28;20057;-49
2024/02/18 01:38:17;;;;;;;8.23;3.93;;;10.30;99.90;;;;;;5012564;28;20026;-50
2024/02/18 01:40:43;;;;;;;10.47;3.70;;;10.30;99.90;;;;;;5012211;28;20065;-52
2024/02/18 01:43:09;;;;;;;10.10;4.40;;;10.30;99.90;;;;;;5012416;28;20033;-51
2024/02/18 01:45:34;;;;;;;9.77;4.10;;;10.20;99.90;;;;;;5012362;28;20117;-50
2024/02/18 01:48:01;;;;;;;8.53;3.67;;;10.20;99.90;;;;;;5012291;28;20482;-51
2024/02/18 01:50:27;;;;;;;8.50;4.00;;;10.30;99.90;;;;;;5012098;28;20120;-50
2024/02/18 01:52:53;;;;;;;10.27;3.60;;;10.30;99.90;;;;;;5012258;28;20506;-50
2024/02/18 01:55:21;;;;;;;9.80;3.87;;;10.30;99.90;;;;;;5012250;28;20030;-50
2024/02/18 01:57:48;;;;;;;7.70;3.57;;;10.20;99.90;;;;;;5012212;28;20026;-50
2024/02/18 02:00:16;;;;;;;9.50;3.40;;;10.20;99.90;;;;;;5011968;28;20071;-51
2024/02/18 02:02:43;;;;;;;6.30;3.63;;;10.10;99.90;;;;;;5012167;28;20523;-49
2024/02/18 02:05:12;;;;;;;7.53;3.27;;;10.20;99.90;;;;;;5012004;28;20038;-51
2024/02/18 02:07:38;;;;;;;9.82;3.40;;;10.20;99.90;;;;;;5012129;28;20057;-49
2024/02/18 02:10:11;;;;;;;12.47;4.30;;;10.10;99.90;;;;;;5011903;28;20052;-49
2024/02/18 02:12:37;;;;;;;8.50;4.07;;;10.10;99.90;;;;;;5012160;28;20021;-48
2024/02/18 02:15:03;;;;;;;9.00;4.50;;;10.10;99.90;;;;;;5011856;28;20029;-50
2024/02/18 02:17:29;;;;;;;8.83;4.07;;;10.20;99.90;;;;;;5011980;28;20041;-49
2024/02/18 02:19:54;;;;;;;8.13;4.33;;;10.10;99.90;;;;;;5011774;28;20391;-51
2024/02/18 02:22:20;;;;;;;9.23;3.97;;;10.20;99.90;;;;;;5010762;28;20038;-49
2024/02/18 02:24:45;;;;;;;10.93;4.30;;;10.20;99.90;;;;;;5012073;28;20022;-51
2024/02/18 02:27:16;;;;;;;7.87;3.73;;;10.20;99.90;;;;;;5010719;28;20496;-51
2024/02/18 02:29:43;;;;;;;11.20;3.90;;;10.20;99.90;;;;;;5011428;28;20030;-49
2024/02/18 02:32:09;;;;;;;10.70;4.10;;;10.20;99.90;;;;;;5011917;28;20126;-49
2024/02/18 02:34:34;;;;;;;10.07;4.30;;;10.20;99.90;;;;;;5014571;28;20033;-48
2024/02/18 02:37:00;;;;;;;7.67;4.23;;;10.20;99.90;;;;;;5015844;28;20518;-52
2024/02/18 02:39:26;;;;;;;8.00;3.77;;;10.20;99.90;;;;;;5015523;28;20109;-50
2024/02/18 02:41:51;;;;;;;9.77;3.63;;;10.20;99.90;;;;;;5015697;28;20033;-48
2024/02/18 02:44:17;;;;;;;8.43;3.90;;;10.20;99.90;;;;;;5014301;28;20030;-51
2024/02/18 02:46:42;;;;;;;9.57;4.07;;;10.20;99.90;;;;;;5015859;28;20057;-52
2024/02/18 02:49:08;;;;;;;12.53;4.83;;;10.20;99.90;;;;;;5015402;28;20026;-53
2024/02/18 02:51:33;;;;;;;10.13;4.73;;;10.20;99.90;;;;;;5015552;28;20394;-49
2024/02/18 02:53:59;;;;;;;10.13;3.87;;;10.10;99.90;;;;;;5015544;28;20030;-49
2024/02/18 02:56:25;;;;;;;9.20;4.07;;;10.10;99.90;;;;;;5015515;28;20029;-50
2024/02/18 02:58:50;;;;;;;11.60;4.17;;;10.10;99.90;;;;;;5015296;28;20483;-51
2024/02/18 03:01:16;;;;;;;12.23;4.07;;;10.10;99.90;;;;;;5015282;28;20034;-48
2024/02/18 03:03:41;;;;;;;11.03;3.97;;;10.10;99.90;;;;;;5015306;28;20160;-50
2024/02/18 03:06:07;;;;;;;10.10;4.40;;;10.10;99.90;;;;;;5015177;28;20394;-52
2024/02/18 03:08:33;;;;;;;9.30;3.67;;;10.10;99.90;;;;;;5015277;28;20030;-53
2024/02/18 03:10:58;;;;;;;10.50;3.97;;;10.10;99.90;;;;;;5015111;28;20041;-49
2024/02/18 03:13:24;;;;;;;9.53;4.23;;;10.20;99.90;;;;;;5015037;28;20033;-49
2024/02/18 03:15:50;;;;;;;11.30;4.20;;;10.20;99.90;;;;;;5015388;28;20030;-49
2024/02/18 03:18:15;;;;;;;8.70;3.97;;;10.30;99.90;;;;;;5015093;28;20466;-49
2024/02/18 03:20:41;;;;;;;9.20;3.70;;;10.20;99.90;;;;;;5014901;28;20088;-48
2024/02/18 03:23:07;;;;;;;10.70;4.50;;;10.10;99.90;;;;;;5014955;28;20034;-49
2024/02/18 03:25:33;;;;;;;9.80;4.57;;;10.10;99.90;;;;;;5013589;28;20037;-49
2024/02/18 03:28:00;;;;;;;10.17;4.97;;;10.10;99.90;;;;;;5014852;28;20026;-49
2024/02/18 03:30:27;;;;;;;9.63;4.77;;;10.00;99.90;;;;;;5014641;28;20038;-49
2024/02/18 03:32:52;;;;;;;12.23;4.67;;;10.00;99.90;;;;;;5014961;28;20072;-51
2024/02/18 03:35:19;;;;;;;9.77;4.70;;;10.10;99.90;;;;;;5014741;28;20066;-51
2024/02/18 03:37:45;;;;;;;11.43;5.17;;;10.10;99.90;;;;;;5014783;28;20042;-50
2024/02/18 03:40:12;;;;;;;9.93;4.80;;;10.00;99.90;;;;;;5013214;28;20026;-50
2024/02/18 03:42:38;;;;;;;9.40;4.67;;;10.00;99.90;;;;;;5014632;28;20042;-49
2024/02/18 03:45:04;;;;;;;11.10;4.80;;;10.00;99.90;;;;;;5013779;28;20037;-51
2024/02/18 03:47:30;;;;;;;11.33;5.00;;;9.90;99.90;;;;;;5014499;28;20030;-49
2024/02/18 03:49:56;;;;;;;9.77;4.83;;;10.00;99.90;;;;;;5014316;28;20033;-50
2024/02/18 03:52:21;;;;;;;14.90;5.90;;;10.00;99.90;;;;;;5014542;28;20029;-51
2024/02/18 03:54:47;;;;;;;9.17;4.50;;;10.00;99.90;;;;;;5014386;28;20029;-49
2024/02/18 03:57:13;;;;;;;9.40;4.63;;;10.00;99.90;;;;;;5014395;28;20022;-49
2024/02/18 03:59:38;;;;;;;9.60;4.00;;;10.00;99.90;;;;;;5014118;28;20407;-49
2024/02/18 04:02:04;;;;;;;10.30;5.00;;;10.00;99.90;;;;;;5014307;28;20077;-49
2024/02/18 04:04:30;;;;;;;12.60;5.90;;;9.90;99.90;;;;;;5014118;28;20030;-50
2024/02/18 04:06:55;;;;;;;11.20;4.37;;;9.80;99.90;;;;;;5014203;28;20029;-49
2024/02/18 04:09:21;;;;;;;10.13;4.93;;;9.80;99.90;;;;;;5013938;28;20080;-50
2024/02/18 04:11:47;;;;;;;11.73;4.60;;;9.90;99.90;;;;;;5014379;28;20084;-51
2024/02/18 04:14:13;;;;;;;12.93;5.00;;;9.90;99.90;;;;;;5014261;28;20037;-50
2024/02/18 04:16:38;;;;;;;9.37;4.80;;;9.90;99.90;;;;;;5014110;28;20438;-50
2024/02/18 04:19:06;;;;;;;12.97;5.30;;;9.90;99.90;;;;;;5013797;28;20030;-49
2024/02/18 04:21:31;;;;;;;9.93;4.40;;;9.90;99.90;;;;;;5013954;28;20475;-49
2024/02/18 04:23:57;;;;;;;9.47;4.63;;;9.90;99.90;;;;;;5013879;28;20037;-50
2024/02/18 04:26:23;;;;;;;11.10;4.93;;;9.90;99.90;;;;;;5013757;28;20033;-54
2024/02/18 04:28:48;;;;;;;11.07;5.13;;;9.80;99.90;;;;;;5013567;28;20073;-53
2024/02/18 04:31:14;;;;;;;12.20;5.17;;;9.80;99.90;;;;;;5013755;28;20032;-51
2024/02/18 04:33:39;;;;;;;9.10;5.43;;;9.80;99.90;;;;;;5013676;28;20045;-51
2024/02/18 04:36:06;;;;;;;13.40;4.97;;;9.70;99.90;;;;;;5013686;28;20038;-51
2024/02/18 04:38:31;;;;;;;11.47;5.00;;;9.80;99.90;;;;;;5013760;28;20034;-49
2024/02/18 04:40:57;;;;;;;9.17;4.60;;;9.80;99.90;;;;;;4995641;28;20036;-49
2024/02/18 04:43:23;;;;;;;11.77;4.47;;;9.80;99.90;;;;;;5013546;28;20021;-49
2024/02/18 04:45:49;;;;;;;14.17;4.63;;;9.80;99.90;;;;;;5013319;28;20471;-51
2024/02/18 04:48:15;;;;;;;13.87;4.50;;;9.80;99.90;;;;;;5012239;28;20030;-49
2024/02/18 04:50:40;;;;;;;8.83;4.40;;;9.70;99.90;;;;;;5013230;28;20104;-51
2024/02/18 04:53:07;;;;;;;11.07;4.47;;;9.60;99.90;;;;;;5013330;28;20029;-50
2024/02/18 04:55:33;;;;;;;9.50;4.57;;;9.60;99.90;;;;;;5013211;28;20033;-49
2024/02/18 04:57:59;;;;;;;9.80;4.40;;;9.70;99.90;;;;;;5012198;28;20091;-49
2024/02/18 05:00:25;;;;;;;9.23;4.50;;;9.60;99.90;;;;;;5012982;28;20045;-53
2024/02/18 05:02:50;;;;;;;9.97;4.27;;;9.60;99.90;;;;;;5013287;28;20026;-49
2024/02/18 05:05:16;;;;;;;9.20;3.97;;;9.60;99.90;;;;;;5013314;28;20517;-49
2024/02/18 05:07:42;;;;;;;10.70;3.90;;;9.50;99.90;;;;;;5013059;28;20502;-48
2024/02/18 05:10:07;;;;;;;9.83;3.73;;;9.50;99.90;;;;;;5012739;28;20056;-50
2024/02/18 05:12:33;;;;;;;7.20;3.67;;;9.60;99.90;;;;;;5013110;28;20395;-49
2024/02/18 05:14:59;;;;;;;8.80;3.63;;;9.50;99.90;;;;;;5012889;28;20083;-51
2024/02/18 05:17:24;;;;;;;8.17;3.20;;;9.60;99.90;;;;;;5013044;28;20038;-51
2024/02/18 05:19:51;;;;;;;8.50;3.70;;;9.70;99.90;;;;;;5012504;28;20030;-49
2024/02/18 05:22:18;;;;;;;5.87;3.00;;;9.70;99.90;;;;;;5013318;28;20075;-50
2024/02/18 05:24:45;;;;;;;6.60;2.83;;;9.70;99.90;;;;;;5012655;28;20123;-49
2024/02/18 05:27:11;;;;;;;9.90;3.50;;;9.60;99.90;;;;;;5012718;28;20030;-48
2024/02/18 05:29:37;;;;;;;9.73;3.27;;;9.70;99.90;;;;;;5012352;28;20041;-49
2024/02/18 05:32:03;;;;;;;6.03;2.60;;;9.70;99.90;;;;;;5012746;28;20104;-50
2024/02/18 05:34:29;;;;;;;6.73;2.77;;;9.60;99.90;;;;;;5012519;28;20026;-49
2024/02/18 05:36:54;;;;;;;6.47;3.20;;;9.60;99.90;;;;;;5012582;28;20029;-49
2024/02/18 05:39:20;;;;;;;7.47;3.07;;;9.60;99.90;;;;;;5012280;28;20040;-49
2024/02/18 05:41:45;;;;;;;10.87;3.47;;;9.60;99.90;;;;;;5012614;28;20036;-49
2024/02/18 05:44:11;;;;;;;4.80;2.77;;;9.70;99.90;;;;;;5012503;28;20026;-49
2024/02/18 05:46:37;;;;;;;8.30;3.27;;;9.70;99.90;;;;;;5012465;28;20029;-49
2024/02/18 05:49:02;;;;;;;8.37;2.70;;;9.60;99.90;;;;;;5012367;28;20022;-50
2024/02/18 05:51:31;;;;;;;6.97;3.17;;;9.60;99.90;;;;;;5012472;28;20037;-49
2024/02/18 05:53:57;;;;;;;7.85;3.22;;;9.70;99.90;;;;;;5012609;28;20037;-51
2024/02/18 05:56:23;;;;;;;8.77;3.03;;;9.60;99.90;;;;;;5012735;28;20521;-49
2024/02/18 05:58:49;;;;;;;10.67;3.20;;;9.60;99.90;;;;;;5012597;28;20040;-49
2024/02/18 06:01:14;;;;;;;7.63;2.90;;;9.60;99.90;;;;;;5012689;28;20034;-49
2024/02/18 06:03:40;;;;;;;5.47;2.80;;;9.50;99.90;;;;;;5012388;28;20026;-49
2024/02/18 06:06:06;;;;;;;4.77;2.30;;;9.50;99.90;;;;;;5012919;28;20037;-51
2024/02/18 06:08:32;;;;;;;6.93;3.00;;;9.60;99.90;;;;;;5012709;28;20505;-48
2024/02/18 06:10:58;;;;;;;9.87;2.80;;;9.50;99.90;;;;;;5013106;28;20033;-50
2024/02/18 06:13:23;;;;;;;8.57;2.87;;;9.50;99.90;;;;;;5013184;28;20030;-51
2024/02/18 06:15:50;;;;;;;10.00;2.97;;;9.50;99.90;;;;;;5013860;28;20034;-49
2024/02/18 06:18:16;;;;;;;11.53;3.10;;;9.50;99.90;;;;;;5012861;28;20038;-51
2024/02/18 06:20:42;;;;;;;7.20;3.23;;;9.50;99.90;;;;;;5012585;28;20074;-52
2024/02/18 06:23:07;;;;;;;7.47;2.40;;;9.40;99.90;;;;;;5012029;28;20041;-49
2024/02/18 06:25:37;;;;;;;7.60;2.60;;;9.50;99.90;;;;;;5011812;28;20062;-50
2024/02/18 06:28:09;;;;;;;7.20;2.53;;;9.50;99.90;;;;;;5011882;28;20060;-50
2024/02/18 06:30:38;;;;;;;6.57;2.80;;;9.50;99.90;;;;;;5011608;28;20419;-52
2024/02/18 06:33:05;;;;;;;6.03;2.40;;;9.50;99.90;;;;;;5012120;28;20034;-51
2024/02/18 06:35:31;;;;;;;5.40;2.47;;;9.50;99.90;;;;;;5011716;28;20092;-53
2024/02/18 06:37:56;;;;;;;5.50;2.40;;;9.50;99.90;;;;;;5011842;28;20030;-53
2024/02/18 06:40:24;;;;;;;9.33;2.97;;;9.50;99.90;;;;;;5011552;28;20045;-49
2024/02/18 06:42:49;;;;;;;7.30;2.90;;;9.40;99.90;;;;;;5011710;28;20084;-50
2024/02/18 06:45:15;;;;;;;7.03;2.60;;;9.40;99.90;;;;;;5010321;28;20037;-51
2024/02/18 06:47:40;;;;;;;6.43;2.90;;;9.40;99.90;;;;;;5010419;28;20030;-51
2024/02/18 06:50:06;;;;;;;5.67;2.60;;;9.40;99.90;;;;;;5011424;28;20026;-49
2024/02/18 06:52:32;;;;;;;5.27;2.83;;;9.40;99.90;;;;;;5011607;28;20467;-48
2024/02/18 06:54:57;;;;;;;6.93;2.43;;;9.30;99.90;;;;;;5011467;28;20034;-50
2024/02/18 06:57:23;;;;;;;5.37;2.60;;;9.30;99.90;;;;;;5011647;28;20038;-53
2024/02/18 06:59:49;;;;;;;6.20;2.50;;;9.20;99.90;;;;;;5011458;28;20395;-49
2024/02/18 07:02:15;;;;;;;7.13;3.10;;;9.20;99.90;;;;;;5011854;28;20139;-49
2024/02/18 07:04:41;;;;;;;7.37;2.57;;;9.20;99.90;;;;;;5011277;28;20535;-50
2024/02/18 07:07:07;;;;;;;6.33;2.57;;;9.20;99.90;;;;;;5011558;28;20022;-50
2024/02/18 07:09:32;;;;;;;5.33;2.60;;;9.20;99.90;;;;;;5011278;28;20034;-53
2024/02/18 07:11:58;;;;;;;7.03;2.50;;;9.20;99.90;;;;;;5010251;28;20038;-50
2024/02/18 07:14:23;;;;;;;6.07;2.90;;;9.20;99.90;;;;;;5011503;28;20022;-53
2024/02/18 07:16:50;;;;;;;5.87;2.50;;;9.20;99.90;;;;;;5011449;28;20113;-52
2024/02/18 07:19:15;;;;;;;5.47;2.40;;;9.10;99.90;;;;;;5011164;28;20081;-50
2024/02/18 07:21:41;;;;;;;6.30;2.47;;;9.20;99.90;;;;;;5013979;28;20061;-52
2024/02/18 07:24:07;;;;;;;9.43;2.73;;;9.10;99.90;;;;;;5015077;28;20045;-50
2024/02/18 07:26:33;;;;;;;6.27;3.00;;;9.10;99.90;;;;;;5014983;28;20034;-51
2024/02/18 07:28:58;;;;;;;5.57;2.73;;;9.10;99.90;;;;;;5014638;28;20414;-52
2024/02/18 07:31:24;;;;;;;5.33;2.50;;;9.10;99.90;;;;;;5014745;28;20102;-48
2024/02/18 07:33:49;;;;;;;7.23;2.73;;;9.10;99.90;;;;;;5014750;28;20470;-48
2024/02/18 07:36:15;;;;;;;8.60;2.93;;;9.00;99.90;;;;;;5014939;28;20038;-49
2024/02/18 07:38:41;;;;;;;5.37;2.50;;;9.00;99.90;;;;;;5014599;28;20034;-49
2024/02/18 07:41:06;;;;;;;7.87;2.70;;;9.00;99.90;;;;;;5014740;28;20336;-49
2024/02/18 07:43:32;;;;;;;5.63;2.37;;;9.00;99.90;;;;;;5014693;28;20159;-50
2024/02/18 07:45:57;;;;;;;5.30;2.50;;;9.00;99.90;;;;;;5014493;28;20026;-50
2024/02/18 07:48:23;;;;;;;7.37;2.50;;;9.00;99.90;;;;;;5014466;28;20065;-54
2024/02/18 07:50:49;;;;;;;8.33;2.87;;;9.00;99.90;;;;;;5014362;28;20030;-53
2024/02/18 07:53:14;;;;;;;6.13;2.00;;;9.00;99.90;;;;;;5014565;28;20026;-51
2024/02/18 07:55:40;;;;;;;6.83;2.37;;;8.90;99.90;;;;;;5014448;28;20528;-50
2024/02/18 07:58:05;;;;;;;5.67;2.57;;;8.90;99.90;;;;;;5014391;28;20038;-52
2024/02/18 08:00:31;;;;;;;6.47;2.50;;;8.90;99.90;;;;;;5014263;28;20033;-49
2024/02/18 08:02:57;;;;;;;9.20;2.90;;;8.90;99.90;;;;;;5014427;28;20434;-49
2024/02/18 08:05:22;;;;;;;10.40;3.60;;;8.90;99.90;;;;;;5014033;28;20029;-49
2024/02/18 08:07:48;;;;;;;12.67;5.43;;;8.90;99.90;;;;;;5014392;28;20029;-49
2024/02/18 08:10:13;;;;;;;7.23;2.80;;;9.00;99.90;;;;;;5013847;28;20096;-50
2024/02/18 08:12:39;;;;;;;5.57;2.33;;;9.00;99.90;;;;;;5014516;28;20088;-49
2024/02/18 08:15:05;;;;;;;9.23;2.63;;;8.90;99.90;;;;;;5014018;28;20402;-49
2024/02/18 08:17:31;;;;;;;7.33;2.40;;;8.90;99.90;;;;;;5013945;28;20125;-51
2024/02/18 08:19:57;;;;;;;6.67;2.33;;;9.00;99.90;;;;;;5013697;28;20112;-51
2024/02/18 08:22:24;;;;;;;6.53;2.50;;;9.00;99.90;;;;;;5013943;28;20026;-49
2024/02/18 08:24:49;;;;;;;7.07;2.30;;;9.00;99.90;;;;;;5013871;28;20482;-50
2024/02/18 08:27:15;;;;;;;8.33;3.10;;;9.00;99.90;;;;;;5013779;28;20030;-48
2024/02/18 08:29:42;;;;;;;6.10;2.30;;;9.00;99.90;;;;;;5013307;28;20037;-50
2024/02/18 08:32:08;;;;;;;6.63;2.60;;;9.00;99.90;;;;;;5013377;28;20022;-51
2024/02/18 08:34:33;;;;;;;5.63;2.10;;;9.00;99.90;;;;;;5013590;28;20401;-53
2024/02/18 08:36:59;;;;;;;7.73;2.20;;;9.00;99.90;;;;;;5013573;28;20499;-51
2024/02/18 08:39:25;;;;;;;4.93;1.90;;;9.10;99.90;;;;;;5013416;28;20454;-50
2024/02/18 08:41:50;;;;;;;5.57;2.20;;;9.10;99.90;;;;;;5013512;28;20081;-50
2024/02/18 08:44:17;;;;;;;3.17;1.90;;;9.10;99.90;;;;;;5012101;28;20065;-49
2024/02/18 08:46:43;;;;;;;6.97;2.03;;;9.10;99.90;;;;;;5012077;28;20130;-50
2024/02/18 08:49:09;;;;;;;4.43;2.20;;;9.10;99.90;;;;;;5013157;28;20119;-48
2024/02/18 08:51:38;;;;;;;5.77;1.97;;;9.10;99.90;;;;;;5012135;28;20058;-50
2024/02/18 08:54:05;;;;;;;4.85;2.13;;;9.10;99.90;;;;;;5013176;28;20040;-49
2024/02/18 08:56:31;;;;;;;8.33;2.33;;;9.10;99.90;;;;;;5012063;28;20076;-49
2024/02/18 08:58:56;;;;;;;5.43;2.10;;;9.20;99.90;;;;;;5013079;28;20429;-49
2024/02/18 09:01:22;;;;;;;4.30;1.70;;;9.20;99.90;;;;;;5012997;28;20038;-48
2024/02/18 09:03:48;;;;;;;6.83;2.13;;;9.20;99.90;;;;;;5013171;28;20034;-49
2024/02/18 09:06:13;;;;;;;8.20;1.87;;;9.20;99.90;;;;;;5012981;28;20022;-48
2024/02/18 09:08:39;;;;;;;7.37;2.33;;;9.20;99.90;;;;;;5013045;28;20546;-49
2024/02/18 09:11:04;;;;;;;7.43;2.27;;;9.20;99.90;;;;;;5012931;28;20121;-49
2024/02/18 09:13:30;;;;;;;6.43;2.23;;;9.30;99.90;;;;;;5012900;28;20498;-52
2024/02/18 09:15:57;;;;;;;5.90;2.00;;;9.30;99.90;;;;;;5012844;28;20069;-51
2024/02/18 09:18:22;;;;;;;5.10;1.77;;;9.30;99.90;;;;;;5012938;28;20104;-50
2024/02/18 09:20:48;;;;;;;7.47;1.97;;;9.30;99.90;;;;;;5012733;28;20041;-53
2024/02/18 09:23:15;;;;;;;6.70;2.50;;;9.40;99.90;;;;;;5012853;28;20502;-51
2024/02/18 09:25:41;;;;;;;6.40;1.73;;;9.40;99.90;;;;;;5012622;28;20095;-50
2024/02/18 09:28:08;;;;;;;7.17;2.10;;;9.30;99.90;;;;;;5012536;28;20055;-52
2024/02/18 09:30:34;;;;;;;5.20;2.10;;;9.30;99.90;;;;;;5012393;28;20037;-50
2024/02/18 09:33:00;;;;;;;5.97;1.70;;;9.30;99.90;;;;;;5012653;28;20034;-50
2024/02/18 09:35:27;;;;;;;5.10;2.00;;;9.30;99.90;;;;;;5012709;28;20593;-53
2024/02/18 09:37:52;;;;;;;5.47;2.00;;;9.40;99.90;;;;;;5012621;28;20033;-49
2024/02/18 09:40:18;;;;;;;7.10;2.00;;;9.40;99.90;;;;;;5012302;28;20036;-51
2024/02/18 09:42:45;;;;;;;4.67;1.90;;;9.40;99.90;;;;;;5011922;28;20116;-49
2024/02/18 09:45:11;;;;;;;6.63;1.90;;;9.40;99.90;;;;;;5012022;28;20129;-49
2024/02/18 09:47:40;;;;;;;5.00;2.00;;;9.40;99.90;;;;;;5012410;28;20030;-50
2024/02/18 09:50:09;;;;;;;4.47;2.13;;;9.40;99.90;;;;;;5012181;28;20410;-49
2024/02/18 09:52:39;;;;;;;5.93;2.03;;;9.40;99.90;;;;;;5012368;28;20483;-50
2024/02/18 09:55:09;;;;;;;6.50;1.90;;;9.40;99.90;;;;;;5011051;28;20114;-51
2024/02/18 09:57:35;;;;;;;4.57;2.20;;;9.40;99.90;;;;;;5012192;28;20117;-53
2024/02/18 10:00:02;;;;;;;11.03;2.43;;;9.40;99.90;;;;;;5012026;28;20121;-51
2024/02/18 10:02:33;;;;;;;5.20;1.90;;;9.40;99.90;;;;;;5011152;28;20116;-52
2024/02/18 10:04:59;;;;;;;3.33;1.80;;;9.40;99.90;;;;;;5010910;28;20061;-50
2024/02/18 10:07:25;;;;;;;4.97;1.97;;;9.40;99.90;;;;;;5012151;28;20065;-49
2024/02/18 10:09:51;;;;;;;7.30;2.07;;;9.30;99.90;;;;;;5011804;28;20033;-49
2024/02/18 10:12:17;;;;;;;4.73;1.43;;;9.30;99.90;;;;;;5012065;28;20113;-50
2024/02/18 10:14:43;;;;;;;3.47;1.70;;;9.20;99.90;;;;;;5012079;28;20376;-49
2024/02/18 10:17:08;;;;;;;4.43;2.10;;;9.20;99.90;;;;;;5011947;28;20072;-49
2024/02/18 10:19:34;;;;;;;7.23;2.03;;;9.20;99.90;;;;;;5011712;28;20432;-49
2024/02/18 10:22:00;;;;;;;6.70;1.87;;;9.10;99.90;;;;;;5011892;28;20061;-48
2024/02/18 10:24:27;;;;;;;6.67;2.20;;;9.10;99.90;;;;;;5011930;28;20029;-51
2024/02/18 10:26:57;;;;;;;5.63;1.93;;;9.10;99.90;;;;;;5011793;28;20037;-50
2024/02/18 10:29:24;;;;;;;9.60;2.40;;;9.10;99.90;;;;;;5011524;28;20050;-50
2024/02/18 10:31:50;;;;;;;3.37;1.50;;;9.10;99.90;;;;;;5011826;28;20033;-48
2024/02/18 10:34:17;;;;;;;4.23;1.97;;;9.10;99.90;;;;;;5011755;28;20544;-51
2024/02/18 10:36:47;;;;;;;6.47;2.27;;;9.00;99.90;;;;;;5011772;28;20061;-51
2024/02/18 10:39:16;;;;;;;5.33;2.20;;;9.00;99.90;;;;;;5011543;28;20041;-48
2024/02/18 10:42:08;;;;;;;4.87;2.10;;;9.00;99.90;;;;;;5011743;28;20034;-51
2024/02/18 10:44:38;;;;;;;7.53;2.07;;;9.00;99.90;;;;;;5011612;28;20041;-50
2024/02/18 10:47:07;;;;;;;8.33;2.70;;;9.00;99.90;;;;;;5011882;28;20481;-49
2024/02/18 10:49:37;;;;;;;7.60;2.38;;;9.00;99.90;;;;;;5011410;28;20487;-49
2024/02/18 10:52:27;;;;;;;5.67;1.93;;;9.00;99.90;;;;;;5011763;28;20031;-51
2024/02/18 10:55:03;;;;;;;4.60;2.43;;;9.00;99.90;;;;;;5013203;28;20044;-49
2024/02/18 10:57:31;;;;;;;5.53;2.13;;;8.90;99.90;;;;;;5014286;28;20030;-51
2024/02/18 11:00:07;;;;;;;5.07;2.33;;;8.90;99.90;;;;;;5015133;28;20033;-53
2024/02/18 11:02:59;;;;;;;4.37;1.97;;;8.90;99.90;;;;;;5015555;28;20029;-49
2024/02/18 11:05:34;;;;;;;5.60;2.03;;;8.90;99.90;;;;;;5008536;28;20517;-49
2024/02/18 11:08:01;;;;;;;9.07;2.37;;;8.80;99.90;;;;;;5015310;28;20526;-50
2024/02/18 11:10:28;;;;;;;6.60;2.10;;;8.80;99.90;;;;;;4997317;28;20033;-50
2024/02/18 11:12:56;;;;;;;8.00;2.20;;;8.80;99.90;;;;;;5015576;28;20483;-51
2024/02/18 11:15:21;;;;;;;5.43;2.90;;;8.80;99.90;;;;;;5015170;28;20034;-52
2024/02/18 11:17:47;;;;;;;3.70;1.90;;;8.90;99.90;;;;;;5015178;28;20041;-52
2024/02/18 11:20:14;;;;;;;6.63;2.40;;;8.90;99.90;;;;;;4997266;28;20030;-51
2024/02/18 11:22:40;;;;;;;6.57;2.50;;;8.90;99.90;;;;;;5015119;28;20061;-49
2024/02/18 11:25:07;;;;;;;6.63;2.63;;;8.90;99.90;;;;;;5014908;28;20545;-51
2024/02/18 11:27:34;;;;;;;6.37;2.20;;;9.00;99.90;;;;;;5015098;28;20061;-50
2024/02/18 11:30:00;;;;;;;5.30;2.20;;;9.10;99.90;;;;;;5014581;28;20419;-48
2024/02/18 11:32:27;;;;;;;4.73;2.53;;;9.00;99.90;;;;;;5014994;28;20026;-49
2024/02/18 11:34:53;;;;;;;10.83;3.17;;;9.00;99.90;;;;;;5014853;28;20061;-49
2024/02/18 11:37:31;;;;;;;5.93;2.50;;;8.90;99.90;;;;;;5013508;28;20031;-50
2024/02/18 11:40:08;;;;;;;6.03;2.17;;;8.90;99.90;;;;;;5014490;28;20030;-50
2024/02/18 11:42:38;;;;;;;6.10;2.60;;;8.80;99.90;;;;;;5014809;28;20053;-49
2024/02/18 11:45:17;;;;;;;4.80;2.17;;;8.80;99.90;;;;;;5014529;28;20458;-49
2024/02/18 11:47:46;;;;;;;5.75;2.22;;;8.80;99.90;;;;;;5015229;28;20026;-51
2024/02/18 11:50:12;;;;;;;;;;;8.70;99.90;;;;;;5014904;28;20112;-52
2024/02/18 11:52:40;;;;;;;6.87;2.00;;;8.70;99.90;;;;;;5014703;28;20004;-50
2024/02/18 11:55:15;;;;;;;5.10;2.00;;;8.60;99.90;;;;;;5014487;28;20430;-49
2024/02/18 11:57:41;;;;;;;7.90;2.60;;;8.70;99.90;;;;;;5014683;28;20038;-50
2024/02/18 12:00:16;;;;;;;3.50;2.20;;;8.70;99.90;;;;;;5012943;28;20380;-52
2024/02/18 12:02:50;;;;;;;5.60;2.37;;;8.70;99.90;;;;;;5014602;28;20033;-50
2024/02/18 12:05:23;;;;;;;9.07;2.00;;;8.70;99.90;;;;;;5014445;28;20049;-51
2024/02/18 12:07:51;;;;;;;6.37;2.33;;;8.70;99.90;;;;;;5013896;28;20565;-50
2024/02/18 12:10:20;;;;;;;13.23;5.07;;;8.70;99.90;;;;;;5013994;28;20033;-50
2024/02/18 12:12:46;;;;;;;7.15;2.63;;;8.70;99.90;;;;;;5013193;28;20064;-51
2024/02/18 12:15:20;;;;;;;3.37;1.83;;;8.80;99.90;;;;;;5014102;28;20036;-49
2024/02/18 12:17:48;;;;;;;3.40;1.80;;;8.60;99.90;;;;;;5014214;28;20109;-52
2024/02/18 12:20:18;;;;;;;5.17;1.73;;;8.60;99.90;;;;;;5012674;28;20026;-50
2024/02/18 12:22:46;;;;;;;2.87;1.73;;;8.60;99.90;;;;;;5014014;28;20487;-49
2024/02/18 12:25:14;;;;;;;5.17;1.80;;;8.50;99.90;;;;;;5013746;28;20034;-50
2024/02/18 12:27:40;;;;;;;5.70;1.80;;;8.50;99.90;;;;;;5013919;28;20073;-51
2024/02/18 12:30:06;;;;;;;4.57;1.90;;;8.50;99.90;;;;;;5013504;28;20034;-52
2024/02/18 12:32:36;;;;;;;4.53;1.70;;;8.50;99.90;;;;;;5013849;28;20033;-50
2024/02/18 12:35:03;;;;;;;4.88;2.20;;;8.50;99.90;;;;;;5013747;28;20080;-50
2024/02/18 12:37:30;;;;;;;4.90;2.03;;;8.50;99.90;;;;;;5013785;28;20454;-49
2024/02/18 12:39:55;;;;;;;5.33;1.90;;;8.40;99.90;;;;;;5013346;28;20423;-50
2024/02/18 12:42:21;;;;;;;5.97;2.00;;;8.40;99.90;;;;;;5013651;28;20037;-49
2024/02/18 12:44:47;;;;;;;7.77;2.10;;;8.40;99.90;;;;;;5013510;28;20034;-51
2024/02/18 12:47:15;;;;;;;4.60;2.00;;;8.50;99.90;;;;;;5013475;28;20037;-49